Zhangwu, China
Current Conditions -  °F | °C
As of 12:00 PM on Thursday 27 Nov 2014 (Local Time) from ZYTX Reporting Station
Clear Clear  
Wind Chill: 31°   Ceiling: Unl
Heat Index: 39°   Visibility: 6mi
Dew Point:   Wind: 13mph
Humidity: 22%   Direction: 20°NNE
Pressure: 30.3"   Gusts: NA
Location:  42.42°N, 122.53°E
Report Text: ZYTX 270400Z 02006MPS CAVOK 04/M16 Q1026 NOSIG
Loading
Personal Weather Stations






























Interactive Weather Map New forecast layout! Learn more

10-Day Weather Forecast

Advertisements
Track Severe Weather on mobile